Time;durP1;ratioP1;P1;durP2;ratioP2;P2;SDS_P1;SDS_P2;PMS_P1;PMS_P2;Temp;Humidity;BMP_temperature;BMP_pressure;BME280_temperature;BME280_humidity;BME280_pressure;Samples;Min_cycle;Max_cycle;Signal;HPM_P1;HPM_P2
2024/01/22 00:01:39;;;;;;;;;;;7.20;99.90;;;;;;5116524;27;19923;-33
2024/01/22 00:04:07;;;;;;;;;;;7.20;99.90;;;;;;5115103;27;19976;-32
2024/01/22 00:06:36;;;;;;;;;;;7.20;99.90;;;;;;5115348;27;19930;-32
2024/01/22 00:09:03;;;;;;;;;;;7.20;99.90;;;;;;5122757;27;19939;-34
2024/01/22 00:11:30;;;;;;;;;;;7.20;99.90;;;;;;5120515;27;20013;-33
2024/01/22 00:13:57;;;;;;;;;;;7.20;99.90;;;;;;5126267;27;19930;-33
2024/01/22 00:16:23;;;;;;;;;;;7.20;99.90;;;;;;5135056;27;19976;-33
2024/01/22 00:18:50;;;;;;;;;;;7.20;99.90;;;;;;5115853;27;19977;-31
2024/01/22 00:21:17;;;;;;;;;;;7.30;99.90;;;;;;5117247;27;20400;-32
2024/01/22 00:23:45;;;;;;;;;;;7.30;99.90;;;;;;5135104;27;20012;-34
2024/01/22 00:26:13;;;;;;;;;;;7.30;99.90;;;;;;5116314;27;19976;-32
2024/01/22 00:28:40;;;;;;;;;;;7.30;99.90;;;;;;5116673;27;19924;-33
2024/01/22 00:31:07;;;;;;;;;;;7.40;99.90;;;;;;5134173;27;19956;-32
2024/01/22 00:33:33;;;;;;;;;;;7.40;99.90;;;;;;5116781;27;20318;-33
2024/01/22 00:36:00;;;;;;;;;;;7.40;99.90;;;;;;5121406;27;19923;-33
2024/01/22 00:38:27;;;;;;;;;;;7.40;99.90;;;;;;5116328;27;20383;-34
2024/01/22 00:40:55;;;;;;;;;;;7.40;99.90;;;;;;5131779;27;19984;-33
2024/01/22 00:43:21;;;;;;;;;;;7.40;99.90;;;;;;5112340;27;19984;-33
2024/01/22 00:45:48;;;;;;;;;;;7.40;99.90;;;;;;5134261;27;19924;-33
2024/01/22 00:48:14;;;;;;;;;;;7.50;99.90;;;;;;5116205;27;19923;-33
2024/01/22 00:50:41;;;;;;;;;;;7.50;99.90;;;;;;5114883;27;20371;-33
2024/01/22 00:53:08;;;;;;;;;;;7.50;99.90;;;;;;5134116;27;19924;-33
2024/01/22 00:55:34;;;;;;;;;;;7.60;99.90;;;;;;5133429;27;19984;-34
2024/01/22 00:58:02;;;;;;;;;;;7.50;99.90;;;;;;5115942;27;19968;-33
2024/01/22 01:00:29;;;;;;;;;;;7.60;99.90;;;;;;5131405;27;19975;-33
2024/01/22 01:02:55;;;;;;;;;;;7.60;99.90;;;;;;5136133;27;19958;-33
2024/01/22 01:05:22;;;;;;;;;;;7.70;99.90;;;;;;5127192;27;20363;-33
2024/01/22 01:07:49;;;;;;;;;;;7.70;99.90;;;;;;5115614;27;20380;-33
2024/01/22 01:10:15;;;;;;;;;;;7.70;99.90;;;;;;5115552;27;19927;-32
2024/01/22 01:12:42;;;;;;;;;;;7.70;99.90;;;;;;5115548;27;20375;-33
2024/01/22 01:15:11;;;;;;;;;;;7.80;99.90;;;;;;5133676;27;20379;-33
2024/01/22 01:17:37;;;;;;;;;;;7.80;99.90;;;;;;5128955;27;19927;-33
2024/01/22 01:20:05;;;;;;;;;;;7.90;99.90;;;;;;5118280;27;19924;-33
2024/01/22 01:22:31;;;;;;;;;;;7.90;99.90;;;;;;5127625;27;19923;-33
2024/01/22 01:24:58;;;;;;;;;;;8.00;99.90;;;;;;5120036;27;20014;-32
2024/01/22 01:27:25;;;;;;;;;;;8.00;99.90;;;;;;5132942;27;19924;-33
2024/01/22 01:29:52;;;;;;;;;;;8.00;99.90;;;;;;5115430;27;20185;-33
2024/01/22 01:32:21;;;;;;;;;;;8.10;99.90;;;;;;5133149;27;20325;-33
2024/01/22 01:34:47;;;;;;;;;;;8.10;99.90;;;;;;5123149;27;19930;-32
2024/01/22 01:37:14;;;;;;;;;;;8.10;99.90;;;;;;5115074;27;19975;-33
2024/01/22 01:39:41;;;;;;;;;;;8.20;99.90;;;;;;5115448;27;20078;-34
2024/01/22 01:42:07;;;;;;;;;;;8.30;99.90;;;;;;5114898;27;19976;-33
2024/01/22 01:44:42;;;;;;;;;;;8.20;99.90;;;;;;5132763;27;19927;-32
2024/01/22 01:47:08;;;;;;;;;;;8.30;99.90;;;;;;5113183;27;19928;-32
2024/01/22 01:49:36;;;;;;;;;;;8.30;99.90;;;;;;5117489;27;20023;-34
2024/01/22 01:52:03;;;;;;;;;;;8.30;99.90;;;;;;5110491;28;19927;-34
2024/01/22 01:54:30;;;;;;;;;;;8.30;99.90;;;;;;5126681;27;19926;-34
2024/01/22 01:56:56;;;;;;;;;;;8.30;99.90;;;;;;5117536;27;19977;-34
2024/01/22 01:59:23;;;;;;;;;;;8.30;99.90;;;;;;5133577;27;20352;-33
2024/01/22 02:01:50;;;;;;;;;;;8.40;99.90;;;;;;5113722;27;20338;-33
2024/01/22 02:04:17;;;;;;;;;;;8.40;99.90;;;;;;5113364;28;19923;-33
2024/01/22 02:06:45;;;;;;;;;;;8.40;99.90;;;;;;5114992;28;20279;-33
2024/01/22 02:09:11;;;;;;;;;;;8.40;99.90;;;;;;5115228;28;19923;-34
2024/01/22 02:11:38;;;;;;;;;;;8.30;99.90;;;;;;5133245;28;19937;-34
2024/01/22 02:14:05;;;;;;;;;;;8.40;99.90;;;;;;5115164;28;19939;-33
2024/01/22 02:16:31;;;;;;;;;;;8.40;99.90;;;;;;5114539;28;19924;-34
2024/01/22 02:18:58;;;;;;;;;;;8.40;99.90;;;;;;5113718;28;19923;-33
2024/01/22 02:21:24;;;;;;;;;;;8.30;99.90;;;;;;5114763;28;19966;-34
2024/01/22 02:23:52;;;;;;;;;;;8.40;99.90;;;;;;5132771;28;19923;-33
2024/01/22 02:26:19;;;;;;;;;;;8.40;99.90;;;;;;5114692;28;19923;-33
2024/01/22 02:28:46;;;;;;;;;;;8.40;99.90;;;;;;5133123;28;19923;-33
2024/01/22 02:31:12;;;;;;;;;;;8.40;99.90;;;;;;5133236;28;20003;-34
2024/01/22 02:33:39;;;;;;;;;;;8.40;99.90;;;;;;5114778;28;19924;-34
2024/01/22 02:36:06;;;;;;;;;;;8.50;99.90;;;;;;5113861;28;19955;-33
2024/01/22 02:38:32;;;;;;;;;;;8.40;99.90;;;;;;5113821;28;19980;-31
2024/01/22 02:41:00;;;;;;;;;;;8.40;99.90;;;;;;5112004;28;19959;-31
2024/01/22 02:43:27;;;;;;;;;;;8.50;99.90;;;;;;5113591;28;19927;-33
2024/01/22 02:45:53;;;;;;;;;;;8.50;99.90;;;;;;5113083;28;19949;-33
2024/01/22 02:48:20;;;;;;;;;;;8.50;99.90;;;;;;5112795;28;19969;-32
2024/01/22 02:50:47;;;;;;;;;;;8.60;99.90;;;;;;5112006;28;19923;-34
2024/01/22 02:53:13;;;;;;;;;;;8.60;99.90;;;;;;5111949;28;19992;-32
2024/01/22 02:55:40;;;;;;;;;;;8.50;99.90;;;;;;5112536;28;19927;-33
2024/01/22 02:58:08;;;;;;;;;;;8.60;99.90;;;;;;5113416;28;19976;-32
2024/01/22 03:00:35;;;;;;;;;;;8.60;99.90;;;;;;5112717;28;19948;-34
2024/01/22 03:03:01;;;;;;;;;;;8.60;99.90;;;;;;5111974;28;20412;-32
2024/01/22 03:05:28;;;;;;;;;;;8.70;99.90;;;;;;5112677;28;19923;-33
2024/01/22 03:07:54;;;;;;;;;;;8.60;99.90;;;;;;5114057;28;19973;-34
2024/01/22 03:10:21;;;;;;;;;;;8.60;99.90;;;;;;5129792;28;19924;-33
2024/01/22 03:12:48;;;;;;;;;;;8.60;99.90;;;;;;5115775;27;19924;-32
2024/01/22 03:15:16;;;;;;;;;;;8.60;99.90;;;;;;5135518;27;20323;-32
2024/01/22 03:17:42;;;;;;;;;;;8.70;99.90;;;;;;5118252;27;19923;-33
2024/01/22 03:20:09;;;;;;;;;;;8.70;99.90;;;;;;5116928;27;19924;-32
2024/01/22 03:22:36;;;;;;;;;;;8.70;99.90;;;;;;5117052;27;20006;-32
2024/01/22 03:25:03;;;;;;;;;;;8.70;99.90;;;;;;5116399;27;19976;-33
2024/01/22 03:27:29;;;;;;;;;;;8.80;99.90;;;;;;5115064;27;19984;-32
2024/01/22 03:29:56;;;;;;;;;;;8.80;99.90;;;;;;5117083;27;19924;-33
2024/01/22 03:32:24;;;;;;;;;;;8.80;99.90;;;;;;5134268;27;19931;-34
2024/01/22 03:34:50;;;;;;;;;;;8.80;99.90;;;;;;5116909;27;20046;-33
2024/01/22 03:37:17;;;;;;;;;;;8.80;99.90;;;;;;5116445;27;19972;-35
2024/01/22 03:39:44;;;;;;;;;;;8.80;99.90;;;;;;5116685;27;20013;-33
2024/01/22 03:42:11;;;;;;;;;;;8.80;99.90;;;;;;5116654;27;20231;-34
2024/01/22 03:44:38;;;;;;;;;;;8.80;99.90;;;;;;5134920;27;19989;-34
2024/01/22 03:47:05;;;;;;;;;;;8.80;99.90;;;;;;5115115;27;20428;-34
2024/01/22 03:49:33;;;;;;;;;;;8.80;99.90;;;;;;5128254;27;20288;-33
2024/01/22 03:52:00;;;;;;;;;;;8.80;99.90;;;;;;5116595;27;19927;-32
2024/01/22 03:54:26;;;;;;;;;;;8.80;99.90;;;;;;5114874;27;19923;-33
2024/01/22 03:56:53;;;;;;;;;;;8.80;99.90;;;;;;5114950;27;19963;-33
2024/01/22 03:59:19;;;;;;;;;;;8.70;99.90;;;;;;5116131;27;19927;-33
2024/01/22 04:01:46;;;;;;;;;;;8.70;99.90;;;;;;5114794;27;19976;-34
2024/01/22 04:04:13;;;;;;;;;;;8.80;99.90;;;;;;5115760;27;19927;-33
2024/01/22 04:06:41;;;;;;;;;;;8.80;99.90;;;;;;5115555;27;19972;-33
2024/01/22 04:09:08;;;;;;;;;;;8.80;99.90;;;;;;5116527;27;19972;-33
2024/01/22 04:11:34;;;;;;;;;;;8.80;99.90;;;;;;5115473;27;19927;-34
2024/01/22 04:14:01;;;;;;;;;;;8.70;99.90;;;;;;5117432;27;19923;-33
2024/01/22 04:16:27;;;;;;;;;;;8.80;99.90;;;;;;5114604;27;19984;-33
2024/01/22 04:18:54;;;;;;;;;;;8.90;99.90;;;;;;5134409;27;20002;-33
2024/01/22 04:21:21;;;;;;;;;;;8.90;99.90;;;;;;5115533;27;19992;-32
2024/01/22 04:23:49;;;;;;;;;;;8.90;99.90;;;;;;5115657;28;19972;-32
2024/01/22 04:26:15;;;;;;;;;;;8.90;99.90;;;;;;5115437;27;19928;-32
2024/01/22 04:28:42;;;;;;;;;;;8.90;99.90;;;;;;5115697;27;19949;-33
2024/01/22 04:31:08;;;;;;;;;;;9.00;99.90;;;;;;5134808;27;20038;-32
2024/01/22 04:33:35;;;;;;;;;;;9.00;99.90;;;;;;5132323;27;20328;-34
2024/01/22 04:36:02;;;;;;;;;;;9.00;99.90;;;;;;5131132;27;20459;-33
2024/01/22 04:38:30;;;;;;;;;;;9.00;99.90;;;;;;5113684;27;19968;-32
2024/01/22 04:40:58;;;;;;;;;;;9.10;99.90;;;;;;5115905;27;20041;-32
2024/01/22 04:43:24;;;;;;;;;;;9.10;99.90;;;;;;5116348;27;19923;-33
2024/01/22 04:45:51;;;;;;;;;;;9.10;99.90;;;;;;5115968;27;19923;-33
2024/01/22 04:48:18;;;;;;;;;;;9.20;99.90;;;;;;5133828;27;20348;-34
2024/01/22 04:50:44;;;;;;;;;;;9.20;99.90;;;;;;5133923;27;19923;-32
2024/01/22 04:53:11;;;;;;;;;;;9.30;99.90;;;;;;5115525;27;19923;-32
2024/01/22 04:55:38;;;;;;;;;;;9.30;99.90;;;;;;5126818;27;19931;-33
2024/01/22 04:58:06;;;;;;;;;;;9.30;99.90;;;;;;5113838;27;19976;-32
2024/01/22 05:00:32;;;;;;;;;;;9.30;99.90;;;;;;5131909;27;19980;-33
2024/01/22 05:03:04;;;;;;;;;;;9.40;99.90;;;;;;5128777;27;19976;-33
2024/01/22 05:05:30;;;;;;;;;;;9.40;99.90;;;;;;5112206;27;19946;-33
2024/01/22 05:07:57;;;;;;;;;;;9.40;99.90;;;;;;5115805;27;19923;-33
2024/01/22 05:10:23;;;;;;;;;;;9.50;99.90;;;;;;5115038;27;19928;-32
2024/01/22 05:12:50;;;;;;;;;;;9.40;99.90;;;;;;5115786;27;19923;-32
2024/01/22 05:15:18;;;;;;;;;;;9.50;99.90;;;;;;5114316;27;19923;-34
2024/01/22 05:17:45;;;;;;;;;;;9.50;99.90;;;;;;5132602;27;19923;-34
2024/01/22 05:20:12;;;;;;;;;;;9.50;99.90;;;;;;5113985;27;19931;-34
2024/01/22 05:22:39;;;;;;;;;;;9.60;99.90;;;;;;5131167;27;20344;-34
2024/01/22 05:25:08;;;;;;;;;;;9.60;99.90;;;;;;5131217;27;19976;-33
2024/01/22 05:27:34;;;;;;;;;;;9.60;99.90;;;;;;5114282;27;20004;-33
2024/01/22 05:30:01;;;;;;;;;;;9.70;99.90;;;;;;5115396;27;20324;-33
2024/01/22 05:32:30;;;;;;;;;;;9.70;99.90;;;;;;5133929;27;19923;-32
2024/01/22 05:34:57;;;;;;;;;;;9.70;99.90;;;;;;5115507;27;19976;-33
2024/01/22 05:37:23;;;;;;;;;;;9.80;99.90;;;;;;5133605;27;19923;-33
2024/01/22 05:39:50;;;;;;;;;;;9.90;99.90;;;;;;5116051;27;20348;-33
2024/01/22 05:42:17;;;;;;;;;;;9.90;99.90;;;;;;5115105;27;19974;-33
2024/01/22 05:44:43;;;;;;;;;;;10.00;99.90;;;;;;5115334;27;19923;-34
2024/01/22 05:47:10;;;;;;;;;;;10.10;99.90;;;;;;5113500;27;20375;-33
2024/01/22 05:49:38;;;;;;;;;;;10.10;99.90;;;;;;5114488;27;20375;-33
2024/01/22 05:52:05;;;;;;;;;;;10.20;99.90;;;;;;5133224;27;19927;-34
2024/01/22 05:54:31;;;;;;;;;;;10.20;99.90;;;;;;5115574;27;19924;-34
2024/01/22 05:56:58;;;;;;;;;;;10.30;99.90;;;;;;5115337;27;19923;-33
2024/01/22 05:59:25;;;;;;;;;;;10.30;99.90;;;;;;5133151;27;20300;-32
2024/01/22 06:01:54;;;;;;;;;;;10.40;99.90;;;;;;5114641;28;19968;-33
2024/01/22 06:04:22;;;;;;;;;;;10.50;99.90;;;;;;5112073;27;20275;-33
2024/01/22 06:06:50;;;;;;;;;;;10.50;99.90;;;;;;5133148;27;20303;-33
2024/01/22 06:09:17;;;;;;;;;;;10.50;99.90;;;;;;5114942;28;19927;-34
2024/01/22 06:11:44;;;;;;;;;;;10.60;99.90;;;;;;5114111;28;19935;-33
2024/01/22 06:14:11;;;;;;;;;;;10.60;99.90;;;;;;5133026;27;19984;-33
2024/01/22 06:16:37;;;;;;;;;;;10.60;99.90;;;;;;5132946;28;19931;-33
2024/01/22 06:19:04;;;;;;;;;;;10.70;99.90;;;;;;5115031;28;19927;-33
2024/01/22 06:21:30;;;;;;;;;;;10.70;99.90;;;;;;5103696;28;19927;-33
2024/01/22 06:23:58;;;;;;;;;;;10.70;99.90;;;;;;5108300;28;20335;-33
2024/01/22 06:26:25;;;;;;;;;;;10.70;99.90;;;;;;5131088;28;19923;-34
2024/01/22 06:28:52;;;;;;;;;;;10.70;99.90;;;;;;5113263;28;19923;-34
2024/01/22 06:31:19;;;;;;;;;;;10.80;99.90;;;;;;5113715;28;19923;-34
2024/01/22 06:33:46;;;;;;;;;;;10.70;99.90;;;;;;5129555;28;19924;-33
2024/01/22 06:36:12;;;;;;;;;;;10.80;99.90;;;;;;5110633;28;20431;-34
2024/01/22 06:38:39;;;;;;;;;;;10.80;99.90;;;;;;5132759;28;19988;-33
2024/01/22 06:41:11;;;;;;;;;;;10.70;99.90;;;;;;5112666;28;19924;-34
2024/01/22 06:43:38;;;;;;;;;;;10.70;99.90;;;;;;5133050;28;19956;-34
2024/01/22 06:46:04;;;;;;;;;;;10.70;99.90;;;;;;5112648;28;19988;-33
2024/01/22 06:48:31;;;;;;;;;;;10.80;99.90;;;;;;5115041;27;20359;-33
2024/01/22 06:50:58;;;;;;;;;;;10.70;99.90;;;;;;5114660;27;20026;-33
2024/01/22 06:53:24;;;;;;;;;;;10.70;99.90;;;;;;5105765;27;19923;-34
2024/01/22 06:55:51;;;;;;;;;;;10.70;99.90;;;;;;5137040;27;20341;-33
2024/01/22 06:58:20;;;;;;;;;;;10.70;99.90;;;;;;5111162;27;20010;-33
2024/01/22 07:00:47;;;;;;;;;;;10.80;99.90;;;;;;5136010;27;19937;-33
2024/01/22 07:03:14;;;;;;;;;;;10.70;99.90;;;;;;5129275;27;19935;-34
2024/01/22 07:05:41;;;;;;;;;;;10.70;99.90;;;;;;5118094;27;19924;-34
2024/01/22 07:08:08;;;;;;;;;;;10.70;99.90;;;;;;5117688;27;19927;-35
2024/01/22 07:10:34;;;;;;;;;;;10.70;99.90;;;;;;5125971;27;19927;-33
2024/01/22 07:13:01;;;;;;;;;;;10.60;99.90;;;;;;5129145;27;19998;-34
2024/01/22 07:15:29;;;;;;;;;;;10.60;99.90;;;;;;5115488;27;20390;-33
2024/01/22 07:17:56;;;;;;;;;;;10.60;99.90;;;;;;5117867;27;19970;-33
2024/01/22 07:20:22;;;;;;;;;;;10.60;99.90;;;;;;5136007;27;19972;-33
2024/01/22 07:22:49;;;;;;;;;;;10.60;99.90;;;;;;5118378;27;19928;-32
2024/01/22 07:25:15;;;;;;;;;;;10.60;99.90;;;;;;5118151;27;20411;-33
2024/01/22 07:27:44;;;;;;;;;;;10.60;99.90;;;;;;5117025;27;19965;-33
2024/01/22 07:30:12;;;;;;;;;;;10.60;99.90;;;;;;5118405;27;20286;-34
2024/01/22 07:32:41;;;;;;;;;;;10.60;99.90;;;;;;5117804;27;19924;-33
2024/01/22 07:35:09;;;;;;;;;;;10.60;99.90;;;;;;5118098;27;19924;-32
2024/01/22 07:37:36;;;;;;;;;;;10.50;99.90;;;;;;5118222;27;19929;-32
2024/01/22 07:40:04;;;;;;;;;;;10.50;99.90;;;;;;5118056;27;19930;-32
2024/01/22 07:42:31;;;;;;;;;;;10.50;99.90;;;;;;5136097;27;19984;-34
2024/01/22 07:44:58;;;;;;;;;;;10.50;99.90;;;;;;5117659;27;19973;-34
2024/01/22 07:47:24;;;;;;;;;;;10.50;99.90;;;;;;5117642;27;19962;-32
2024/01/22 07:49:52;;;;;;;;;;;10.50;99.90;;;;;;5117411;27;19988;-33
2024/01/22 07:52:19;;;;;;;;;;;10.50;99.90;;;;;;5118153;27;19923;-32
2024/01/22 07:54:45;;;;;;;;;;;10.50;99.90;;;;;;5136178;27;20272;-33
2024/01/22 07:57:12;;;;;;;;;;;10.50;99.90;;;;;;5135282;27;19980;-32
2024/01/22 07:59:39;;;;;;;;;;;10.50;99.90;;;;;;5117426;27;19923;-33
2024/01/22 08:02:05;;;;;;;;;;;10.50;99.90;;;;;;5117960;27;19980;-33
2024/01/22 08:04:32;;;;;;;;;;;10.40;99.90;;;;;;5136003;27;19923;-34
2024/01/22 08:07:02;;;;;;;;;;;10.40;99.90;;;;;;5117970;27;19980;-33
2024/01/22 08:09:29;;;;;;;;;;;10.40;99.90;;;;;;5117533;27;19931;-33
2024/01/22 08:11:56;;;;;;;;;;;10.40;99.90;;;;;;5117188;27;19923;-33
2024/01/22 08:14:23;;;;;;;;;;;10.40;99.90;;;;;;5116938;27;19977;-33
2024/01/22 08:16:52;;;;;;;;;;;10.40;99.90;;;;;;5117322;27;19924;-35
2024/01/22 08:19:19;;;;;;;;;;;10.40;99.90;;;;;;5117295;27;19976;-33
2024/01/22 08:21:46;;;;;;;;;;;10.40;99.90;;;;;;5135285;27;19972;-33
2024/01/22 08:24:14;;;;;;;;;;;10.40;99.90;;;;;;5116734;27;19999;-34
2024/01/22 08:26:40;;;;;;;;;;;10.40;99.90;;;;;;5117298;27;20283;-33
2024/01/22 08:29:07;;;;;;;;;;;10.40;99.90;;;;;;5117103;27;19979;-33
2024/01/22 08:31:34;;;;;;;;;;;10.40;99.90;;;;;;5135168;27;19924;-33
2024/01/22 08:34:00;;;;;;;;;;;10.40;99.90;;;;;;5116899;27;19973;-34
2024/01/22 08:36:27;;;;;;;;;;;10.40;99.90;;;;;;5117192;27;19962;-32
2024/01/22 08:38:54;;;;;;;;;;;10.40;99.90;;;;;;5117003;27;19976;-34
2024/01/22 08:41:26;;;;;;;;;;;10.40;99.90;;;;;;5116763;27;19980;-32
2024/01/22 08:43:53;;;;;;;;;;;10.40;99.90;;;;;;5116647;27;19924;-32
2024/01/22 08:46:19;;;;;;;;;;;10.40;99.90;;;;;;5116664;27;19923;-32
2024/01/22 08:48:46;;;;;;;;;;;10.40;99.90;;;;;;5116186;27;19924;-32
2024/01/22 08:51:13;;;;;;;;;;;10.40;99.90;;;;;;5116448;27;20013;-32
2024/01/22 08:53:42;;;;;;;;;;;10.40;99.90;;;;;;5116317;27;20023;-32
2024/01/22 08:56:09;;;;;;;;;;;10.40;99.90;;;;;;5116318;27;19923;-33
2024/01/22 08:58:37;;;;;;;;;;;10.30;99.90;;;;;;5116343;27;19978;-33
2024/01/22 09:01:05;;;;;;;;;;;10.30;99.90;;;;;;5116010;27;19976;-33
2024/01/22 09:03:32;;;;;;;;;;;10.30;99.90;;;;;;5134646;27;20290;-34
2024/01/22 09:05:59;;;;;;;;;;;10.30;99.90;;;;;;5116525;27;19930;-34
2024/01/22 09:08:25;;;;;;;;;;;10.30;99.90;;;;;;5116561;27;19970;-34
2024/01/22 09:10:52;;;;;;;;;;;10.30;99.90;;;;;;5116028;27;19924;-34
2024/01/22 09:13:19;;;;;;;;;;;10.20;99.90;;;;;;5116009;27;20477;-34
2024/01/22 09:15:47;;;;;;;;;;;10.20;99.90;;;;;;5116134;27;19923;-34
2024/01/22 09:18:13;;;;;;;;;;;10.20;99.90;;;;;;5115802;27;19927;-35
2024/01/22 09:20:41;;;;;;;;;;;10.10;99.90;;;;;;5115435;27;19924;-33
2024/01/22 09:23:07;;;;;;;;;;;10.20;99.90;;;;;;5134151;27;19924;-35
2024/01/22 09:25:34;;;;;;;;;;;10.20;99.90;;;;;;5115677;27;20348;-34
2024/01/22 09:28:02;;;;;;;;;;;10.20;99.90;;;;;;5134065;27;20375;-34
2024/01/22 09:30:28;;;;;;;;;;;10.10;99.90;;;;;;5134068;27;19924;-33
2024/01/22 09:32:58;;;;;;;;;;;10.10;99.90;;;;;;5116064;27;20014;-35
2024/01/22 09:35:24;;;;;;;;;;;10.10;99.90;;;;;;5115563;27;19965;-35
2024/01/22 09:37:51;;;;;;;;;;;10.10;99.90;;;;;;5116039;27;19923;-33
2024/01/22 09:40:18;;;;;;;;;;;10.10;99.90;;;;;;5115763;27;20007;-32
2024/01/22 09:42:45;;;;;;;;;;;10.00;99.90;;;;;;5115628;27;19923;-32
2024/01/22 09:45:12;;;;;;;;;;;10.10;99.90;;;;;;5114827;27;20369;-32
2024/01/22 09:47:38;;;;;;;;;;;10.00;99.90;;;;;;5133914;27;20375;-34
2024/01/22 09:50:07;;;;;;;;;;;10.00;99.90;;;;;;5115257;27;19923;-32
2024/01/22 09:52:33;;;;;;;;;;;10.00;99.90;;;;;;5133740;27;19927;-33
2024/01/22 09:54:59;;;;;;;;;;;10.00;99.90;;;;;;5115551;27;19980;-32
2024/01/22 09:57:27;;;;;;;;;;;10.00;99.90;;;;;;5115543;27;19924;-33
2024/01/22 09:59:54;;;;;;;;;;;10.00;99.90;;;;;;5133785;27;20469;-33
2024/01/22 10:02:20;;;;;;;;;;;9.90;99.90;;;;;;5115561;27;20046;-33
2024/01/22 10:04:47;;;;;;;;;;;10.00;99.90;;;;;;5114875;27;20301;-33
2024/01/22 10:07:15;;;;;;;;;;;10.00;99.90;;;;;;5115129;27;19945;-34
2024/01/22 10:09:42;;;;;;;;;;;10.00;99.90;;;;;;5115017;27;19923;-34
2024/01/22 10:12:09;;;;;;;;;;;10.00;99.90;;;;;;5114834;27;19987;-33
2024/01/22 10:14:37;;;;;;;;;;;9.90;99.90;;;;;;5133306;27;20363;-35
2024/01/22 10:17:27;;;;;;;;;;;9.90;99.90;;;;;;5115179;28;19930;-33
2024/01/22 10:19:54;;;;;;;;;;;9.90;99.90;;;;;;5127955;28;20339;-33
2024/01/22 10:22:24;;;;;;;;;;;9.90;99.90;;;;;;5115235;27;19928;-35
2024/01/22 10:25:00;;;;;;;;;;;9.90;99.90;;;;;;5119109;27;20387;-34
2024/01/22 10:27:26;;;;;;;;;;;9.90;99.90;;;;;;5119554;27;19992;-33
2024/01/22 10:29:53;;;;;;;;;;;10.00;99.90;;;;;;5119469;27;20470;-33
2024/01/22 10:32:20;;;;;;;;;;;10.00;99.90;;;;;;5137712;27;19923;-36
2024/01/22 10:34:50;;;;;;;;;;;10.00;99.90;;;;;;5119216;27;19927;-34
2024/01/22 10:37:17;;;;;;;;;;;10.10;99.90;;;;;;5119050;27;19927;-31
2024/01/22 10:39:45;;;;;;;;;;;10.00;99.90;;;;;;5118758;27;19924;-34
2024/01/22 10:42:13;;;;;;;;;;;10.00;99.90;;;;;;5119168;27;19927;-34
2024/01/22 10:44:43;;;;;;;;;;;10.00;99.90;;;;;;5119032;27;19969;-32
2024/01/22 10:47:13;;;;;;;;;;;9.90;99.90;;;;;;5118845;27;19931;-32
2024/01/22 10:49:39;;;;;;;;;;;9.90;99.90;;;;;;5137166;27;19923;-33
2024/01/22 10:52:06;;;;;;;;;;;9.80;99.90;;;;;;5137004;27;19976;-34
2024/01/22 10:54:34;;;;;;;;;;;9.80;99.90;;;;;;5119115;27;19984;-33
2024/01/22 10:57:06;;;;;;;;;;;9.70;99.90;;;;;;5117490;27;19970;-33
2024/01/22 10:59:34;;;;;;;;;;;9.60;99.90;;;;;;5136777;27;19924;-33
2024/01/22 11:02:01;;;;;;;;;;;9.60;99.90;;;;;;5118203;27;20443;-34
2024/01/22 11:04:28;;;;;;;;;;;9.60;99.90;;;;;;5135566;27;19954;-33
2024/01/22 11:06:55;;;;;;;;;;;9.60;99.90;;;;;;5117999;27;19953;-35
2024/01/22 11:09:22;;;;;;;;;;;9.60;99.90;;;;;;5118393;27;19927;-36
2024/01/22 11:11:48;;;;;;;;;;;9.60;99.90;;;;;;5118055;27;19923;-32
2024/01/22 11:14:16;;;;;;;;;;;9.70;99.90;;;;;;5118388;27;19923;-34
2024/01/22 11:16:43;;;;;;;;;;;9.80;99.90;;;;;;5118603;27;19968;-32
2024/01/22 11:19:20;;;;;;;;;;;9.90;99.90;;;;;;5118303;27;19976;-34
2024/01/22 11:21:46;;;;;;;;;;;9.90;99.90;;;;;;5118446;27;19924;-33
2024/01/22 11:24:13;;;;;;;;;;;10.00;99.90;;;;;;5118540;27;19927;-32
2024/01/22 11:26:41;;;;;;;;;;;10.10;99.90;;;;;;5117415;27;20010;-32
2024/01/22 11:29:07;;;;;;;;;;;10.10;99.90;;;;;;5136626;27;19966;-32
2024/01/22 11:31:35;;;;;;;;;;;10.20;99.90;;;;;;5118254;27;20415;-33
2024/01/22 11:34:02;;;;;;;;;;;10.20;99.90;;;;;;5117431;27;19970;-33
2024/01/22 11:36:50;;;;;;;;;;;10.30;99.90;;;;;;5117862;27;19981;-32
2024/01/22 11:39:31;;;;;;;;;;;10.30;99.90;;;;;;5134767;27;19923;-33
2024/01/22 11:41:57;;;;;;;;;;;10.40;99.90;;;;;;5117927;27;19927;-32
2024/01/22 11:44:26;;;;;;;;;;;10.50;99.90;;;;;;5136198;27;19931;-32
2024/01/22 11:46:58;;;;;;;;;;;10.50;99.90;;;;;;5134986;27;19968;-34
2024/01/22 11:49:25;;;;;;;;;;;10.50;99.90;;;;;;5117492;27;19962;-35
2024/01/22 11:51:52;;;;;;;;;;;10.50;99.90;;;;;;5116598;27;19967;-33
2024/01/22 11:54:19;;;;;;;;;;;10.50;99.90;;;;;;5136144;27;20353;-33
2024/01/22 11:56:46;;;;;;;;;;;10.60;99.90;;;;;;5117927;27;19924;-33
2024/01/22 11:59:12;;;;;;;;;;;10.60;99.90;;;;;;5117310;27;19930;-34
2024/01/22 12:01:42;;;;;;;;;;;10.60;99.90;;;;;;5116824;27;20358;-33
2024/01/22 12:04:10;;;;;;;;;;;10.60;99.90;;;;;;5116563;27;19924;-33
2024/01/22 12:06:47;;;;;;;;;;;10.60;99.90;;;;;;5117302;27;19927;-35
2024/01/22 12:09:14;;;;;;;;;;;10.60;99.90;;;;;;5117486;27;19923;-34
2024/01/22 12:11:46;;;;;;;;;;;10.60;99.90;;;;;;5135672;27;20360;-33
2024/01/22 12:14:12;;;;;;;;;;;10.50;99.90;;;;;;5117044;27;19923;-33
2024/01/22 12:16:39;;;;;;;;;;;10.50;99.90;;;;;;5115510;27;20280;-33
2024/01/22 12:19:12;;;;;;;;;;;10.60;99.90;;;;;;5135838;27;19964;-33
2024/01/22 12:21:38;;;;;;;;;;;10.50;99.90;;;;;;5134627;27;19966;-34
2024/01/22 12:24:11;;;;;;;;;;;10.50;99.90;;;;;;5115758;27;20021;-33
2024/01/22 12:26:40;;;;;;;;;;;10.40;99.90;;;;;;5116829;27;19923;-34
2024/01/22 12:29:06;;;;;;;;;;;10.40;99.90;;;;;;5116944;27;19991;-32
2024/01/22 12:31:33;;;;;;;;;;;10.40;99.90;;;;;;5115507;27;19976;-32
2024/01/22 12:34:09;;;;;;;;;;;10.40;99.90;;;;;;5117095;27;19927;-33
2024/01/22 12:36:37;;;;;;;;;;;10.40;99.90;;;;;;5117076;27;19923;-33
2024/01/22 12:39:04;;;;;;;;;;;10.40;99.90;;;;;;5116625;27;19973;-33
2024/01/22 12:41:31;;;;;;;;;;;10.40;99.90;;;;;;5116194;27;19923;-33
2024/01/22 12:43:58;;;;;;;;;;;10.30;99.90;;;;;;5115403;27;20367;-32
2024/01/22 12:46:25;;;;;;;;;;;10.30;99.90;;;;;;5114792;27;19930;-32
2024/01/22 12:48:55;;;;;;;;;;;10.20;99.90;;;;;;5115976;27;19945;-33
2024/01/22 12:51:25;;;;;;;;;;;10.10;99.90;;;;;;5115054;27;19927;-33
2024/01/22 12:53:52;;;;;;;;;;;10.10;99.90;;;;;;5115053;27;19924;-33
2024/01/22 12:56:19;;;;;;;;;;;10.10;99.90;;;;;;5115238;27;19969;-34
2024/01/22 12:58:46;;;;;;;;;;;10.10;99.90;;;;;;5133660;27;19976;-33
2024/01/22 13:01:13;;;;;;;;;;;10.10;99.90;;;;;;5116440;27;20323;-32
2024/01/22 13:03:40;;;;;;;;;;;10.10;99.90;;;;;;5134356;27;20185;-32
2024/01/22 13:06:06;;;;;;;;;;;10.10;99.90;;;;;;5115457;27;19931;-32
2024/01/22 13:08:33;;;;;;;;;;;10.10;99.90;;;;;;5115766;27;20051;-32
2024/01/22 13:11:01;;;;;;;;;;;10.20;99.90;;;;;;5114935;27;19927;-32
2024/01/22 13:13:28;;;;;;;;;;;10.20;99.90;;;;;;5116198;27;19931;-32
2024/01/22 13:15:54;;;;;;;;;;;10.10;99.90;;;;;;5115267;27;19972;-32
2024/01/22 13:18:21;;;;;;;;;;;10.10;99.90;;;;;;5115754;27;20387;-33
2024/01/22 13:20:48;;;;;;;;;;;10.10;99.90;;;;;;5113609;27;19924;-33
2024/01/22 13:23:15;;;;;;;;;;;10.10;99.90;;;;;;5115733;27;19924;-32
2024/01/22 13:25:42;;;;;;;;;;;10.10;99.90;;;;;;5115277;27;19924;-32
2024/01/22 13:28:10;;;;;;;;;;;10.20;99.90;;;;;;5115399;27;20232;-33
2024/01/22 13:30:37;;;;;;;;;;;10.10;99.90;;;;;;5115896;27;19968;-32
2024/01/22 13:33:05;;;;;;;;;;;10.10;99.90;;;;;;5115304;27;20376;-34
2024/01/22 13:35:32;;;;;;;;;;;10.00;99.90;;;;;;5130103;27;19924;-33
2024/01/22 13:37:58;;;;;;;;;;;10.00;99.90;;;;;;5132259;27;19935;-32
2024/01/22 13:40:25;;;;;;;;;;;10.00;99.90;;;;;;5112552;27;19923;-33
2024/01/22 13:42:52;;;;;;;;;;;10.00;99.90;;;;;;5133510;27;19954;-33
2024/01/22 13:45:20;;;;;;;;;;;10.00;99.90;;;;;;5115345;27;19927;-33
2024/01/22 13:47:46;;;;;;;;;;;10.00;99.90;;;;;;5113159;27;19977;-33
2024/01/22 13:50:13;;;;;;;;;;;10.00;99.90;;;;;;5113601;27;19976;-35
2024/01/22 13:52:40;;;;;;;;;;;10.00;99.90;;;;;;5115636;27;19995;-34
2024/01/22 13:55:07;;;;;;;;;;;10.00;99.90;;;;;;5115356;27;19924;-34
2024/01/22 13:57:34;;;;;;;;;;;10.00;99.90;;;;;;5115525;28;20034;-33
2024/01/22 14:00:01;;;;;;;;;;;10.00;99.90;;;;;;5133617;27;20435;-33
2024/01/22 14:02:29;;;;;;;;;;;10.00;99.90;;;;;;5133563;27;19976;-32
2024/01/22 14:04:55;;;;;;;;;;;10.00;99.90;;;;;;5113424;27;19923;-32
2024/01/22 14:07:22;;;;;;;;;;;9.90;99.90;;;;;;5114699;27;19981;-33
2024/01/22 14:09:49;;;;;;;;;;;9.90;99.90;;;;;;5114364;28;19923;-33
2024/01/22 14:12:15;;;;;;;;;;;9.90;99.90;;;;;;5133118;27;19958;-32
2024/01/22 14:14:42;;;;;;;;;;;9.80;99.90;;;;;;5115492;27;19967;-34
2024/01/22 14:17:09;;;;;;;;;;;9.70;99.90;;;;;;5115460;28;19923;-33
2024/01/22 14:19:37;;;;;;;;;;;9.70;99.90;;;;;;5130230;28;19954;-35
2024/01/22 14:22:05;;;;;;;;;;;9.70;99.90;;;;;;5114979;28;19927;-33
2024/01/22 14:24:32;;;;;;;;;;;9.60;99.90;;;;;;5115011;28;19969;-34